Time;durP1;ratioP1;P1;durP2;ratioP2;P2;SDS_P1;SDS_P2;PMS_P1;PMS_P2;Temp;Humidity;BMP_temperature;BMP_pressure;BME280_temperature;BME280_humidity;BME280_pressure;Samples;Min_cycle;Max_cycle;Signal;HPM_P1;HPM_P2
2021/06/19 00:00:05;;;;;;;;;;;;;;;23.66;67.56;95781.50;1048619;28;19966;-75
2021/06/19 00:00:35;;;;;;;;;;;;;;;23.63;67.57;95785.72;1045817;28;19962;-75
2021/06/19 00:01:06;;;;;;;;;;;;;;;23.65;67.54;95785.34;1040695;28;20023;-75
2021/06/19 00:01:37;;;;;;;;;;;;;;;23.64;67.71;95784.56;1048791;28;19941;-75
2021/06/19 00:02:07;;;;;;;;;;;;;;;23.66;67.73;95786.97;1052795;28;19914;-76
2021/06/19 00:02:38;;;;;;;;;;;;;;;23.64;68.36;95790.03;1051633;28;19950;-75
2021/06/19 00:03:08;;;;;;;;;;;;;;;23.66;68.89;95790.47;1052585;28;20061;-76
2021/06/19 00:03:38;;;;;;;;;;;;;;;23.67;68.98;95794.78;1044409;28;19917;-76
2021/06/19 00:04:09;;;;;;;;;;;;;;;23.67;69.03;95792.03;1044421;28;19963;-76
2021/06/19 00:04:39;;;;;;;;;;;;;;;23.66;68.14;95801.38;1041316;28;19917;-76
2021/06/19 00:05:10;;;;;;;;;;;;;;;23.64;68.40;95792.75;1041377;28;19909;-76
2021/06/19 00:05:40;;;;;;;;;;;;;;;23.61;68.02;95798.91;1040531;28;19995;-75
2021/06/19 00:06:11;;;;;;;;;;;;;;;23.59;68.47;95804.69;1032272;28;20359;-75
2021/06/19 00:06:41;;;;;;;;;;;;;;;23.57;68.93;95798.03;1035524;28;19914;-75
2021/06/19 00:07:11;;;;;;;;;;;;;;;23.53;68.78;95797.16;1040480;28;19929;-76
2021/06/19 00:07:42;;;;;;;;;;;;;;;23.54;69.00;95802.25;1048639;28;19961;-76
2021/06/19 00:08:13;;;;;;;;;;;;;;;23.52;68.74;95799.13;1052746;28;19908;-76
2021/06/19 00:08:43;;;;;;;;;;;;;;;23.50;68.64;95793.25;1048879;28;19913;-76
2021/06/19 00:09:13;;;;;;;;;;;;;;;23.50;69.20;95790.50;1044491;28;19947;-75
2021/06/19 00:09:43;;;;;;;;;;;;;;;23.51;68.58;95804.94;1040472;28;19913;-76
2021/06/19 00:10:14;;;;;;;;;;;;;;;23.52;69.16;95810.03;1048683;28;20405;-76
2021/06/19 00:10:44;;;;;;;;;;;;;;;23.51;68.58;95810.38;1047989;28;19920;-76
2021/06/19 00:11:14;;;;;;;;;;;;;;;23.49;69.22;95805.31;1052879;28;19916;-76
2021/06/19 00:11:44;;;;;;;;;;;;;;;23.48;69.06;95814.59;1048520;28;19912;-76
2021/06/19 00:12:16;;;;;;;;;;;;;;;23.45;69.54;95809.09;1048653;28;20357;-76
2021/06/19 00:12:47;;;;;;;;;;;;;;;23.42;68.99;95807.84;1052657;28;19912;-76
2021/06/19 00:13:17;;;;;;;;;;;;;;;23.39;70.32;95811.31;1048626;28;19920;-76
2021/06/19 00:13:47;;;;;;;;;;;;;;;23.37;70.22;95812.81;1040372;28;19909;-76
2021/06/19 00:14:18;;;;;;;;;;;;;;;23.33;70.08;95805.31;1040255;28;19972;-76
2021/06/19 00:14:48;;;;;;;;;;;;;;;23.30;69.94;95810.72;1044486;28;19917;-76
2021/06/19 00:15:19;;;;;;;;;;;;;;;23.28;69.69;95816.50;1048690;28;19920;-76
2021/06/19 00:15:49;;;;;;;;;;;;;;;23.27;70.17;95825.84;1052822;28;19912;-76
2021/06/19 00:16:22;;;;;;;;;;;;;;;23.27;69.64;95825.03;1048515;28;19962;-76
2021/06/19 00:16:52;;;;;;;;;;;;;;;23.25;70.51;95827.34;1040260;28;19921;-76
2021/06/19 00:17:22;;;;;;;;;;;;;;;23.20;70.69;95828.41;1040642;28;19940;-76
2021/06/19 00:17:53;;;;;;;;;;;;;;;23.19;70.32;95826.84;1040553;28;19913;-76
2021/06/19 00:18:24;;;;;;;;;;;;;;;23.16;70.77;95824.81;1044739;28;20419;-76
2021/06/19 00:18:54;;;;;;;;;;;;;;;23.15;71.23;95828.69;1048510;28;19912;-76
2021/06/19 00:19:24;;;;;;;;;;;;;;;23.19;71.09;95826.06;1044618;28;19959;-75
2021/06/19 00:19:55;;;;;;;;;;;;;;;23.18;70.70;95827.16;1052826;28;19912;-76
2021/06/19 00:20:25;;;;;;;;;;;;;;;23.17;71.17;95825.59;1040144;28;20002;-76
2021/06/19 00:20:55;;;;;;;;;;;;;;;23.17;71.23;95822.88;1040210;28;20003;-76
2021/06/19 00:21:26;;;;;;;;;;;;;;;23.13;70.78;95811.88;1044453;28;19966;-76
2021/06/19 00:21:56;;;;;;;;;;;;;;;23.05;70.76;95813.66;1044465;28;19913;-76
2021/06/19 00:22:26;;;;;;;;;;;;;;;23.01;71.32;95820.16;1052728;28;20294;-76
2021/06/19 00:22:56;;;;;;;;;;;;;;;22.94;71.48;95820.03;1052682;28;20013;-76
2021/06/19 00:23:27;;;;;;;;;;;;;;;22.88;72.10;95819.50;1048491;28;19916;-75
2021/06/19 00:23:57;;;;;;;;;;;;;;;22.82;71.10;95818.91;1048494;28;20270;-76
2021/06/19 00:24:27;;;;;;;;;;;;;;;22.78;71.89;95814.56;1044422;28;19921;-76
2021/06/19 00:24:57;;;;;;;;;;;;;;;22.76;72.09;95814.88;1044512;28;19948;-76
2021/06/19 00:25:28;;;;;;;;;;;;;;;22.74;71.96;95822.63;1044299;28;19924;-76
2021/06/19 00:25:59;;;;;;;;;;;;;;;22.72;72.27;95819.44;1044488;28;20048;-76
2021/06/19 00:26:29;;;;;;;;;;;;;;;22.69;72.02;95819.38;1052690;28;19912;-76
2021/06/19 00:26:59;;;;;;;;;;;;;;;22.68;71.29;95817.81;1044306;28;19974;-76
2021/06/19 00:27:30;;;;;;;;;;;;;;;22.61;71.70;95817.63;1044495;28;19923;-76
2021/06/19 00:28:00;;;;;;;;;;;;;;;22.55;71.83;95820.59;1048467;28;20380;-76
2021/06/19 00:28:30;;;;;;;;;;;;;;;22.52;72.16;95820.50;1046294;28;20383;-76
2021/06/19 00:29:00;;;;;;;;;;;;;;;22.49;70.70;95819.28;1052677;28;19955;-76
2021/06/19 00:29:31;;;;;;;;;;;;;;;22.46;72.11;95822.69;1052702;28;20230;-76
2021/06/19 00:30:02;;;;;;;;;;;;;;;22.42;72.00;95824.56;1048527;28;19913;-76
2021/06/19 00:30:32;;;;;;;;;;;;;;;22.40;71.36;95826.81;1048506;28;20353;-76
2021/06/19 00:31:03;;;;;;;;;;;;;;;22.40;70.82;95821.38;1040338;28;20027;-77
2021/06/19 00:31:33;;;;;;;;;;;;;;;22.39;70.30;95827.19;1040450;28;19948;-77
2021/06/19 00:32:03;;;;;;;;;;;;;;;22.34;70.82;95827.44;1040207;28;19921;-77
2021/06/19 00:32:34;;;;;;;;;;;;;;;22.33;71.26;95828.59;1040180;28;20007;-77
2021/06/19 00:33:04;;;;;;;;;;;;;;;22.28;71.30;95838.59;1044343;28;19909;-76
2021/06/19 00:33:34;;;;;;;;;;;;;;;22.25;72.01;95831.09;1052709;28;19918;-77
2021/06/19 00:34:05;;;;;;;;;;;;;;;22.21;72.33;95832.16;1048562;28;19924;-76
2021/06/19 00:34:35;;;;;;;;;;;;;;;22.17;72.74;95834.78;1048531;28;20345;-77
2021/06/19 00:35:06;;;;;;;;;;;;;;;22.14;73.28;95827.31;1048548;28;19904;-77
2021/06/19 00:35:36;;;;;;;;;;;;;;;22.12;73.88;95832.31;1048559;28;20074;-76
2021/06/19 00:36:06;;;;;;;;;;;;;;;22.12;73.70;95835.03;1048524;28;20475;-76
2021/06/19 00:36:37;;;;;;;;;;;;;;;22.10;73.39;95831.03;1052701;28;19993;-76
2021/06/19 00:37:07;;;;;;;;;;;;;;;22.07;73.12;95827.09;1048490;28;19900;-76
2021/06/19 00:37:37;;;;;;;;;;;;;;;22.06;72.41;95825.53;1048585;28;19912;-76
2021/06/19 00:38:08;;;;;;;;;;;;;;;22.06;73.17;95825.53;1048427;28;19911;-76
2021/06/19 00:38:38;;;;;;;;;;;;;;;22.04;73.25;95833.22;1047257;28;19908;-77
2021/06/19 00:39:08;;;;;;;;;;;;;;;22.06;72.49;95836.41;1048532;28;19905;-77
2021/06/19 00:39:38;;;;;;;;;;;;;;;22.05;72.78;95845.69;1044380;28;19917;-77
2021/06/19 00:40:10;;;;;;;;;;;;;;;22.08;72.82;95841.50;1044372;28;19905;-76
2021/06/19 00:40:40;;;;;;;;;;;;;;;22.13;72.79;95847.50;1047675;28;19905;-77
2021/06/19 00:41:11;;;;;;;;;;;;;;;22.16;72.72;95851.44;1052659;28;19916;-77
2021/06/19 00:41:41;;;;;;;;;;;;;;;22.18;72.10;95841.81;1052827;28;19904;-77
2021/06/19 00:42:11;;;;;;;;;;;;;;;22.24;71.77;95845.06;1052582;28;20404;-77
2021/06/19 00:42:48;;;;;;;;;;;;;;;22.25;70.70;95844.72;1052295;28;19943;-77
2021/06/19 00:43:19;;;;;;;;;;;;;;;22.29;70.59;95839.38;1052723;28;19973;-77
2021/06/19 00:43:49;;;;;;;;;;;;;;;22.29;71.34;95845.59;1052684;28;20365;-76
2021/06/19 00:44:20;;;;;;;;;;;;;;;22.31;71.01;95846.03;1048267;28;19917;-76
2021/06/19 00:44:50;;;;;;;;;;;;;;;22.38;70.94;95839.22;1048563;28;19936;-76
2021/06/19 00:45:21;;;;;;;;;;;;;;;22.38;70.38;95845.44;1044366;28;19927;-76
2021/06/19 00:45:51;;;;;;;;;;;;;;;22.40;69.88;95836.94;1044684;28;19913;-76
2021/06/19 00:46:21;;;;;;;;;;;;;;;22.44;69.68;95843.25;1052535;28;19935;-75
2021/06/19 00:46:52;;;;;;;;;;;;;;;22.44;69.60;95846.78;1052719;28;19908;-75
2021/06/19 00:47:23;;;;;;;;;;;;;;;22.45;68.62;95837.47;1048604;28;20436;-75
2021/06/19 00:47:53;;;;;;;;;;;;;;;22.47;69.30;95834.38;1052727;28;20352;-75
2021/06/19 00:48:25;;;;;;;;;;;;;;;22.49;68.79;95840.28;1052521;28;19971;-76
2021/06/19 00:48:56;;;;;;;;;;;;;;;22.51;69.38;95835.25;1057995;27;19911;-76
2021/06/19 00:49:26;;;;;;;;;;;;;;;22.53;68.41;95833.00;1062069;27;19964;-76
2021/06/19 00:49:56;;;;;;;;;;;;;;;22.55;68.35;95831.50;1057821;28;19998;-76
2021/06/19 00:50:27;;;;;;;;;;;;;;;22.58;68.31;95830.00;1051683;28;19908;-76
2021/06/19 00:50:57;;;;;;;;;;;;;;;22.56;69.07;95838.50;1041065;28;20274;-76
2021/06/19 00:51:27;;;;;;;;;;;;;;;22.53;68.76;95833.00;1041021;28;19912;-76
2021/06/19 00:51:57;;;;;;;;;;;;;;;22.51;69.28;95833.31;1041038;28;19952;-76
2021/06/19 00:52:28;;;;;;;;;;;;;;;22.50;68.84;95831.75;1042430;28;19905;-75
2021/06/19 00:52:58;;;;;;;;;;;;;;;22.49;68.88;95840.28;1045197;28;19987;-76
2021/06/19 00:53:28;;;;;;;;;;;;;;;22.49;69.40;95837.56;1045194;28;19905;-76
2021/06/19 00:53:59;;;;;;;;;;;;;;;22.50;69.30;95836.41;1045184;28;19963;-76
2021/06/19 00:54:29;;;;;;;;;;;;;;;22.51;69.17;95846.16;1047531;28;20247;-76
2021/06/19 00:54:59;;;;;;;;;;;;;;;22.50;69.27;95839.91;1049286;28;19943;-76
2021/06/19 00:55:29;;;;;;;;;;;;;;;22.48;68.74;95846.88;1053473;28;19905;-76
2021/06/19 00:56:00;;;;;;;;;;;;;;;22.46;69.11;95846.41;1053586;28;19912;-76
2021/06/19 00:56:32;;;;;;;;;;;;;;;22.46;68.51;95838.25;1055411;27;19911;-76
2021/06/19 00:57:02;;;;;;;;;;;;;;;22.41;69.51;95839.28;1057507;28;20335;-76
2021/06/19 00:57:33;;;;;;;;;;;;;;;22.39;69.46;95838.06;1057766;28;19991;-76
2021/06/19 00:58:03;;;;;;;;;;;;;;;22.38;69.76;95825.59;1053515;28;19907;-76
2021/06/19 00:58:34;;;;;;;;;;;;;;;22.28;69.91;95830.41;1049289;28;19911;-76
2021/06/19 00:59:04;;;;;;;;;;;;;;;22.28;69.52;95824.97;1049263;28;19901;-76
2021/06/19 00:59:36;;;;;;;;;;;;;;;22.27;70.19;95826.13;1045163;28;19947;-76
2021/06/19 01:00:07;;;;;;;;;;;;;;;22.26;70.29;95827.22;1049651;28;19908;-76
2021/06/19 01:00:37;;;;;;;;;;;;;;;22.28;69.80;95830.41;1056728;27;19904;-76
2021/06/19 01:01:08;;;;;;;;;;;;;;;22.31;70.40;95821.53;1057629;28;19910;-76
2021/06/19 01:01:38;;;;;;;;;;;;;;;22.28;70.65;95824.97;1057595;28;19900;-76
2021/06/19 01:02:08;;;;;;;;;;;;;;;22.30;69.99;95830.84;1053452;28;20022;-76
2021/06/19 01:02:39;;;;;;;;;;;;;;;22.29;70.23;95823.03;1052351;28;20384;-76
2021/06/19 01:03:09;;;;;;;;;;;;;;;22.30;71.11;95819.16;1049333;28;19954;-76
2021/06/19 01:03:40;;;;;;;;;;;;;;;22.30;70.58;95817.25;1049314;28;19932;-76
2021/06/19 01:04:10;;;;;;;;;;;;;;;22.30;70.84;95824.63;1045108;28;19917;-76
2021/06/19 01:04:40;;;;;;;;;;;;;;;22.31;70.36;95818.03;1045063;28;20388;-76
2021/06/19 01:05:11;;;;;;;;;;;;;;;22.34;70.08;95822.00;1049336;28;19912;-76
2021/06/19 01:05:43;;;;;;;;;;;;;;;22.33;70.95;95829.38;1053569;28;19912;-76
2021/06/19 01:06:14;;;;;;;;;;;;;;;22.31;70.29;95829.69;1053446;28;19951;-76
2021/06/19 01:06:44;;;;;;;;;;;;;;;22.31;71.14;95832.44;1049200;28;19965;-76
2021/06/19 01:07:14;;;;;;;;;;;;;;;22.33;70.33;95845.72;1045079;28;19924;-76
2021/06/19 01:07:44;;;;;;;;;;;;;;;22.31;71.07;95851.47;1040984;28;19952;-76
2021/06/19 01:08:15;;;;;;;;;;;;;;;22.29;70.51;95845.59;1036936;28;19913;-76
2021/06/19 01:08:45;;;;;;;;;;;;;;;22.27;70.39;95847.91;1041111;28;19952;-76
2021/06/19 01:09:15;;;;;;;;;;;;;;;22.27;70.37;95847.91;1036807;28;20370;-76
2021/06/19 01:09:46;;;;;;;;;;;;;;;22.26;70.59;95846.28;1041060;28;19917;-76
2021/06/19 01:10:16;;;;;;;;;;;;;;;22.27;71.15;95845.19;1041046;28;19932;-76
2021/06/19 01:10:46;;;;;;;;;;;;;;;22.31;70.20;95853.41;1045043;28;19950;-75
2021/06/19 01:11:21;;;;;;;;;;;;;;;22.32;71.03;95846.84;1057733;28;19951;-76
2021/06/19 01:11:52;;;;;;;;;;;;;;;22.33;70.98;95842.97;1050039;28;20079;-76
2021/06/19 01:12:23;;;;;;;;;;;;;;;22.35;70.49;95845.34;1052023;28;19964;-75
2021/06/19 01:12:54;;;;;;;;;;;;;;;22.34;70.42;95849.22;1041021;28;19917;-76
2021/06/19 01:13:24;;;;;;;;;;;;;;;22.31;71.17;95843.31;1037803;28;19920;-76
2021/06/19 01:13:54;;;;;;;;;;;;;;;22.32;70.46;95844.13;1041082;28;20416;-76
2021/06/19 01:14:24;;;;;;;;;;;;;;;22.28;70.66;95837.78;1046183;28;20250;-76
2021/06/19 01:14:55;;;;;;;;;;;;;;;22.28;70.64;95844.03;1049154;28;19916;-76
2021/06/19 01:15:25;;;;;;;;;;;;;;;22.28;71.51;95843.25;1044958;28;19916;-76
2021/06/19 01:15:57;;;;;;;;;;;;;;;22.25;71.40;95844.72;1032951;28;19921;-76
2021/06/19 01:16:28;;;;;;;;;;;;;;;22.26;70.83;95850.94;1039563;28;19916;-76
2021/06/19 01:16:58;;;;;;;;;;;;;;;22.26;70.91;95846.28;1037429;28;20397;-76
2021/06/19 01:17:28;;;;;;;;;;;;;;;22.27;71.46;95841.66;1041179;28;19956;-75
2021/06/19 01:17:58;;;;;;;;;;;;;;;22.24;71.80;95854.03;1041052;28;20346;-76
2021/06/19 01:18:29;;;;;;;;;;;;;;;22.21;71.28;95843.03;1034354;28;19926;-76
2021/06/19 01:18:59;;;;;;;;;;;;;;;22.19;71.46;95843.38;1041032;28;19928;-75
2021/06/19 01:19:29;;;;;;;;;;;;;;;22.19;71.73;95845.31;1049174;28;19912;-76
2021/06/19 01:19:59;;;;;;;;;;;;;;;22.21;71.39;95846.53;1049227;28;20235;-76
2021/06/19 01:20:33;;;;;;;;;;;;;;;22.18;71.45;95852.69;1047220;28;19916;-76
2021/06/19 01:21:04;;;;;;;;;;;;;;;22.19;72.29;95851.56;1036887;28;19925;-76
2021/06/19 01:21:34;;;;;;;;;;;;;;;22.17;72.44;95853.84;1033056;28;20386;-76
2021/06/19 01:22:04;;;;;;;;;;;;;;;22.17;71.85;95853.06;1036889;28;20390;-76
2021/06/19 01:22:35;;;;;;;;;;;;;;;22.13;71.86;95850.22;1039237;28;19933;-75
2021/06/19 01:23:05;;;;;;;;;;;;;;;22.16;71.70;95857.72;1045241;28;20020;-76
2021/06/19 01:23:35;;;;;;;;;;;;;;;22.13;72.14;95858.38;1049099;28;20347;-76
2021/06/19 01:24:11;;;;;;;;;;;;;;;22.10;72.12;95853.59;1049136;28;19917;-76
2021/06/19 01:24:41;;;;;;;;;;;;;;;22.12;72.82;95856.81;1045688;28;19924;-76
2021/06/19 01:25:16;;;;;;;;;;;;;;;22.08;72.58;95853.16;1045110;28;20252;-76
2021/06/19 01:25:46;;;;;;;;;;;;;;;22.09;72.79;95851.22;1046490;28;20027;-76
2021/06/19 01:26:20;;;;;;;;;;;;;;;22.09;72.61;95851.22;1045048;28;19909;-76
2021/06/19 01:26:51;;;;;;;;;;;;;;;22.05;72.68;95851.91;1046308;28;20348;-76
2021/06/19 01:27:24;;;;;;;;;;;;;;;22.05;72.86;95851.91;1045163;28;19955;-76
2021/06/19 01:27:54;;;;;;;;;;;;;;;22.05;73.25;95848.41;1041833;28;19921;-76
2021/06/19 01:28:24;;;;;;;;;;;;;;;22.03;73.58;95853.41;1048082;28;20385;-76
2021/06/19 01:28:55;;;;;;;;;;;;;;;21.99;73.78;95852.53;1045901;28;20004;-76
2021/06/19 01:29:25;;;;;;;;;;;;;;;22.01;73.32;95861.16;1045025;28;20031;-76
2021/06/19 01:29:56;;;;;;;;;;;;;;;22.01;73.42;95861.94;1044912;28;20294;-76
2021/06/19 01:30:28;;;;;;;;;;;;;;;22.01;73.78;95858.44;1038090;28;20004;-76
2021/06/19 01:30:58;;;;;;;;;;;;;;;22.00;73.79;95851.38;1045556;28;19913;-76
2021/06/19 01:31:28;;;;;;;;;;;;;;;22.04;73.65;95861.22;1049509;28;20332;-76
2021/06/19 01:31:59;;;;;;;;;;;;;;;22.02;74.28;95857.28;1045150;28;20015;-76
2021/06/19 01:32:30;;;;;;;;;;;;;;;22.03;74.06;95858.84;1047462;28;20400;-76
2021/06/19 01:33:01;;;;;;;;;;;;;;;22.00;73.76;95862.25;1036728;28;19945;-76
2021/06/19 01:33:31;;;;;;;;;;;;;;;22.00;74.00;95852.16;1041320;28;19909;-76
2021/06/19 01:34:01;;;;;;;;;;;;;;;22.02;74.17;95860.78;1040812;28;19916;-76
2021/06/19 01:34:31;;;;;;;;;;;;;;;22.01;73.80;95842.09;1038889;28;19952;-76
2021/06/19 01:35:02;;;;;;;;;;;;;;;22.02;73.93;95843.69;1044964;28;19905;-76
2021/06/19 01:35:32;;;;;;;;;;;;;;;22.08;74.10;95842.28;1040957;28;20374;-76
2021/06/19 01:36:03;;;;;;;;;;;;;;;22.07;73.74;95843.44;1040745;28;19948;-77
2021/06/19 01:36:33;;;;;;;;;;;;;;;22.03;74.12;95843.31;1050887;28;19961;-76
2021/06/19 01:37:03;;;;;;;;;;;;;;;22.03;73.88;95839.81;1040882;28;19911;-76
2021/06/19 01:37:33;;;;;;;;;;;;;;;22.03;73.95;95848.75;1040766;28;19906;-76
2021/06/19 01:38:04;;;;;;;;;;;;;;;22.04;74.13;95844.09;1036683;28;19905;-76
2021/06/19 01:38:37;;;;;;;;;;;;;;;22.06;74.31;95847.28;1039132;28;20322;-76
2021/06/19 01:39:08;;;;;;;;;;;;;;;22.06;74.39;95848.09;1049201;28;19905;-76
2021/06/19 01:39:38;;;;;;;;;;;;;;;22.09;73.88;95848.50;1046023;28;19901;-76
2021/06/19 01:40:09;;;;;;;;;;;;;;;22.09;74.32;95849.31;1045166;28;19936;-75
2021/06/19 01:40:39;;;;;;;;;;;;;;;22.10;74.28;95850.09;1037833;28;19916;-76
2021/06/19 01:41:13;;;;;;;;;;;;;;;22.10;73.99;95850.09;1044952;28;19912;-76
2021/06/19 01:41:43;;;;;;;;;;;;;;;22.10;73.41;95848.16;1041427;28;19917;-76
2021/06/19 01:42:14;;;;;;;;;;;;;;;22.08;74.22;95844.22;1041464;28;20027;-76
2021/06/19 01:42:45;;;;;;;;;;;;;;;22.06;73.69;95837.19;1041355;28;19921;-76
2021/06/19 01:43:15;;;;;;;;;;;;;;;22.04;73.86;95855.00;1041058;28;19915;-76
2021/06/19 01:43:46;;;;;;;;;;;;;;;22.06;73.66;95841.84;1040896;28;20317;-76
2021/06/19 01:44:16;;;;;;;;;;;;;;;22.09;73.66;95841.13;1041052;28;20071;-76
2021/06/19 01:44:46;;;;;;;;;;;;;;;22.13;73.52;95844.78;1044890;28;19928;-76
2021/06/19 01:45:18;;;;;;;;;;;;;;;22.08;73.85;95845.00;1041058;28;19909;-76
2021/06/19 01:45:48;;;;;;;;;;;;;;;22.11;73.99;95838.09;1049208;28;20011;-76
2021/06/19 01:46:18;;;;;;;;;;;;;;;22.09;73.72;95843.84;1049047;28;19913;-76
2021/06/19 01:46:50;;;;;;;;;;;;;;;22.08;73.76;95846.94;1053375;28;20324;-76
2021/06/19 01:47:20;;;;;;;;;;;;;;;22.09;73.73;95841.13;1045165;28;20390;-76
2021/06/19 01:47:50;;;;;;;;;;;;;;;22.09;73.86;95841.13;1041545;28;19917;-77
2021/06/19 01:48:21;;;;;;;;;;;;;;;22.06;73.83;95837.19;1029509;28;19922;-76
2021/06/19 01:48:51;;;;;;;;;;;;;;;22.09;73.78;95845.78;1049247;28;20033;-76
2021/06/19 01:49:21;;;;;;;;;;;;;;;22.10;73.83;95845.44;1041108;28;19916;-77
2021/06/19 01:49:52;;;;;;;;;;;;;;;22.10;74.07;95839.22;1044923;28;19921;-77
2021/06/19 01:50:23;;;;;;;;;;;;;;;22.09;74.28;95843.84;1044320;28;19913;-77
2021/06/19 01:50:53;;;;;;;;;;;;;;;22.08;73.97;95838.78;1041017;28;20019;-78
2021/06/19 01:51:23;;;;;;;;;;;;;;;22.06;73.80;95842.63;1041453;28;19919;-75
2021/06/19 01:51:54;;;;;;;;;;;;;;;22.06;73.87;95839.91;1041074;28;19925;-75
2021/06/19 01:52:24;;;;;;;;;;;;;;;22.05;74.39;95841.03;1043254;28;19943;-76
2021/06/19 01:52:54;;;;;;;;;;;;;;;22.03;74.36;95840.59;1045521;28;19947;-76
2021/06/19 01:53:25;;;;;;;;;;;;;;;22.02;74.81;95835.50;1041667;28;19913;-76
2021/06/19 01:53:55;;;;;;;;;;;;;;;22.01;74.00;95834.72;1043025;28;19968;-76
2021/06/19 01:54:25;;;;;;;;;;;;;;;21.99;74.62;95836.19;1039953;28;19988;-75
2021/06/19 01:54:56;;;;;;;;;;;;;;;21.97;74.24;95839.28;1051255;28;19940;-75
2021/06/19 01:55:26;;;;;;;;;;;;;;;21.98;74.14;95837.34;1051039;28;19952;-76
2021/06/19 01:55:56;;;;;;;;;;;;;;;21.97;74.72;95836.56;1051285;28;19916;-76
2021/06/19 01:56:26;;;;;;;;;;;;;;;21.97;74.21;95833.03;1051286;28;19912;-76
2021/06/19 01:56:57;;;;;;;;;;;;;;;21.96;74.76;95834.97;1042773;28;20008;-75
2021/06/19 01:57:27;;;;;;;;;;;;;;;21.96;74.39;95829.53;1042835;28;19913;-76
2021/06/19 01:57:58;;;;;;;;;;;;;;;21.98;74.43;95834.63;1042689;28;19917;-77
2021/06/19 01:58:30;;;;;;;;;;;;;;;21.97;74.20;95827.59;1047277;28;19980;-76
2021/06/19 01:59:00;;;;;;;;;;;;;;;21.99;74.75;95841.63;1046873;28;19978;-76
2021/06/19 01:59:31;;;;;;;;;;;;;;;22.00;74.51;95830.41;1047332;28;19912;-77
2021/06/19 02:00:03;;;;;;;;;;;;;;;22.02;74.29;95830.06;1050609;28;19980;-77
2021/06/19 02:00:36;;;;;;;;;;;;;;;22.02;74.43;95833.59;1043185;28;19909;-76
2021/06/19 02:01:07;;;;;;;;;;;;;;;22.02;73.79;95835.50;1047316;28;19909;-76
2021/06/19 02:01:37;;;;;;;;;;;;;;;22.03;74.60;95835.16;1038890;28;19914;-76
2021/06/19 02:02:08;;;;;;;;;;;;;;;22.03;74.68;95831.66;1039227;28;20067;-76
2021/06/19 02:02:38;;;;;;;;;;;;;;;22.02;74.58;95828.13;1043179;28;20461;-76
2021/06/19 02:03:09;;;;;;;;;;;;;;;22.03;74.25;95832.44;1047024;28;20032;-76
2021/06/19 02:03:39;;;;;;;;;;;;;;;22.01;73.94;95832.00;1051254;28;19909;-76
2021/06/19 02:04:09;;;;;;;;;;;;;;;22.00;74.46;95829.59;1051048;28;20079;-76
2021/06/19 02:04:39;;;;;;;;;;;;;;;22.00;74.44;95832.31;1047126;28;19944;-76
2021/06/19 02:05:10;;;;;;;;;;;;;;;21.99;74.66;95831.53;1042378;28;20008;-76
2021/06/19 02:05:40;;;;;;;;;;;;;;;21.99;74.18;95828.81;1050944;28;19968;-76
2021/06/19 02:06:11;;;;;;;;;;;;;;;22.02;73.96;95846.41;1050858;28;19919;-76
2021/06/19 02:06:41;;;;;;;;;;;;;;;22.01;74.04;95842.88;1050834;28;19912;-76
2021/06/19 02:07:11;;;;;;;;;;;;;;;22.01;74.05;95839.38;1055312;28;19915;-76
2021/06/19 02:07:44;;;;;;;;;;;;;;;22.02;74.50;95840.97;1055288;28;19945;-76
2021/06/19 02:08:15;;;;;;;;;;;;;;;22.00;74.02;95848.66;1055205;28;20378;-76
2021/06/19 02:09:04;;;;;;;;;;;;;;;22.00;74.72;95848.66;1055392;28;19908;-76
2021/06/19 02:09:35;;;;;;;;;;;;;;;22.03;74.60;95847.97;1053579;28;20376;-76
2021/06/19 02:10:05;;;;;;;;;;;;;;;22.05;74.07;95856.56;1053223;28;19922;-76
2021/06/19 02:10:37;;;;;;;;;;;;;;;22.06;73.84;95861.69;1053181;28;19912;-76
2021/06/19 02:11:07;;;;;;;;;;;;;;;22.08;74.47;95855.09;1053254;28;19916;-76
2021/06/19 02:11:38;;;;;;;;;;;;;;;22.08;73.76;95863.25;1049268;28;20286;-75
2021/06/19 02:12:08;;;;;;;;;;;;;;;22.11;74.23;95857.13;1053247;28;19919;-76
2021/06/19 02:12:38;;;;;;;;;;;;;;;22.11;74.39;95860.69;1053178;28;19916;-75
2021/06/19 02:13:09;;;;;;;;;;;;;;;22.09;74.02;95851.22;1053174;28;19916;-76
2021/06/19 02:13:39;;;;;;;;;;;;;;;22.09;74.49;95862.13;1053172;28;19919;-76
2021/06/19 02:14:12;;;;;;;;;;;;;;;22.04;74.79;95861.22;1053180;28;19919;-76
2021/06/19 02:14:42;;;;;;;;;;;;;;;22.05;74.26;95859.28;1053092;28;19927;-76
2021/06/19 02:15:13;;;;;;;;;;;;;;;22.02;74.57;95860.00;1048946;28;19994;-76
2021/06/19 02:15:44;;;;;;;;;;;;;;;22.01;74.88;95863.88;1048871;28;19912;-76
2021/06/19 02:16:15;;;;;;;;;;;;;;;21.98;74.42;95864.53;1041468;28;20350;-76
2021/06/19 02:16:45;;;;;;;;;;;;;;;21.96;74.78;95866.84;1044959;28;19920;-76
2021/06/19 02:17:15;;;;;;;;;;;;;;;21.97;74.81;95857.53;1049205;28;19909;-76
2021/06/19 02:17:46;;;;;;;;;;;;;;;21.96;75.11;95858.66;1045731;28;19944;-76
2021/06/19 02:18:16;;;;;;;;;;;;;;;21.97;74.63;95858.31;1041969;28;19909;-76
2021/06/19 02:18:46;;;;;;;;;;;;;;;21.95;75.27;95857.06;1049370;28;19970;-76
2021/06/19 02:19:17;;;;;;;;;;;;;;;21.95;75.26;95866.00;1044833;28;19920;-76
2021/06/19 02:19:47;;;;;;;;;;;;;;;21.95;75.54;95857.06;1044819;28;20394;-76
2021/06/19 02:20:17;;;;;;;;;;;;;;;21.95;75.42;95857.84;1053118;28;20315;-76
2021/06/19 02:20:52;;;;;;;;;;;;;;;21.95;75.50;95863.28;1053113;28;19919;-76
2021/06/19 02:21:22;;;;;;;;;;;;;;;21.96;75.62;95864.13;1044815;28;19916;-77
2021/06/19 02:21:52;;;;;;;;;;;;;;;21.95;75.53;95873.38;1045965;28;20360;-77
2021/06/19 02:22:23;;;;;;;;;;;;;;;21.96;75.35;95864.13;1047476;28;19912;-77
2021/06/19 02:22:53;;;;;;;;;;;;;;;21.94;75.64;95867.16;1041314;28;19913;-77
2021/06/19 02:23:24;;;;;;;;;;;;;;;21.92;75.71;95864.00;1053196;28;19957;-75
2021/06/19 02:23:54;;;;;;;;;;;;;;;21.93;75.68;95867.50;1053135;28;19912;-76
2021/06/19 02:24:24;;;;;;;;;;;;;;;21.94;75.84;95863.66;1058442;27;19908;-76
2021/06/19 02:24:55;;;;;;;;;;;;;;;21.93;75.92;95859.34;1061560;27;20040;-76
2021/06/19 02:25:26;;;;;;;;;;;;;;;21.92;76.02;95855.84;1053452;28;20298;-76
2021/06/19 02:25:56;;;;;;;;;;;;;;;21.93;76.04;95864.78;1053097;28;20414;-76
2021/06/19 02:26:26;;;;;;;;;;;;;;;21.92;75.74;95865.94;1043204;28;20006;-76
2021/06/19 02:27:12;;;;;;;;;;;;;;;21.92;75.40;95863.22;1040559;28;19906;-76
2021/06/19 02:28:01;;;;;;;;;;;;;;;21.92;75.88;95863.22;1046785;28;20003;-76
2021/06/19 02:28:31;;;;;;;;;;;;;;;21.92;75.86;95864.00;1051450;28;19955;-76
2021/06/19 02:29:02;;;;;;;;;;;;;;;21.92;76.15;95863.22;1057383;28;19910;-76
2021/06/19 02:29:32;;;;;;;;;;;;;;;21.93;75.80;95867.50;1050433;28;19916;-76
2021/06/19 02:30:03;;;;;;;;;;;;;;;21.90;76.31;95863.53;1040675;28;19901;-76
2021/06/19 02:30:34;;;;;;;;;;;;;;;21.91;76.16;95861.63;1042397;28;19923;-75
2021/06/19 02:31:05;;;;;;;;;;;;;;;21.91;76.36;95864.34;1040953;28;19905;-76
2021/06/19 02:31:35;;;;;;;;;;;;;;;21.91;75.88;95864.34;1041284;28;20378;-76
2021/06/19 02:32:06;;;;;;;;;;;;;;;21.90;76.10;95862.75;1044585;28;19905;-76
2021/06/19 02:32:36;;;;;;;;;;;;;;;21.91;76.51;95869.81;1039129;28;19906;-76
2021/06/19 02:33:06;;;;;;;;;;;;;;;21.90;76.67;95868.97;1044830;28;19912;-76
2021/06/19 02:33:37;;;;;;;;;;;;;;;21.89;76.10;95861.97;1044822;28;19924;-76
2021/06/19 02:34:07;;;;;;;;;;;;;;;21.90;76.08;95862.75;1044784;28;19917;-76
2021/06/19 02:34:37;;;;;;;;;;;;;;;21.91;76.83;95867.88;1049159;28;19943;-76
2021/06/19 02:35:08;;;;;;;;;;;;;;;21.89;76.27;95861.97;1048944;28;20292;-76
2021/06/19 02:35:39;;;;;;;;;;;;;;;21.89;76.58;95866.63;1048999;28;19950;-76
2021/06/19 02:36:09;;;;;;;;;;;;;;;21.89;76.34;95859.25;1057289;28;19912;-76
2021/06/19 02:36:40;;;;;;;;;;;;;;;21.92;76.67;95866.72;1049725;28;19916;-76
2021/06/19 02:37:10;;;;;;;;;;;;;;;21.93;76.28;95859.34;1049007;28;19940;-76
2021/06/19 02:37:40;;;;;;;;;;;;;;;21.93;76.67;95871.03;1040628;28;19913;-76
2021/06/19 02:38:11;;;;;;;;;;;;;;;21.92;76.77;95855.84;1040761;28;20004;-76
2021/06/19 02:38:41;;;;;;;;;;;;;;;21.94;76.75;95860.94;1052134;28;20356;-76
2021/06/19 02:39:11;;;;;;;;;;;;;;;21.93;76.74;95854.69;1053156;28;19943;-76
2021/06/19 02:39:41;;;;;;;;;;;;;;;21.95;76.32;95854.34;1061595;27;19911;-76
2021/06/19 02:40:12;;;;;;;;;;;;;;;21.94;76.26;95855.50;1061498;27;20397;-76